Time;durP1;ratioP1;P1;durP2;ratioP2;P2;SDS_P1;SDS_P2;PMS_P1;PMS_P2;Temp;Humidity;BMP_temperature;BMP_pressure;BME280_temperature;BME280_humidity;BME280_pressure;Samples;Min_cycle;Max_cycle;Signal;HPM_P1;HPM_P2
2022/11/22 05:02:27;;;;;;;10.25;2.38;;;7.90;99.90;;;;;;4991403;23;20076;-75
2022/11/22 05:04:53;;;;;;;18.77;2.80;;;7.90;99.90;;;;;;4917225;29;20036;-75
2022/11/22 05:07:18;;;;;;;15.27;2.77;;;7.80;99.90;;;;;;4919041;29;20036;-75
2022/11/22 05:09:44;;;;;;;11.97;1.97;;;7.80;99.90;;;;;;4920262;29;20083;-75
2022/11/22 05:12:10;;;;;;;12.50;1.87;;;7.80;99.90;;;;;;4904461;29;20119;-75
2022/11/22 05:14:35;;;;;;;11.33;2.00;;;7.80;99.90;;;;;;4901311;29;20032;-76
2022/11/22 05:17:01;;;;;;;5.63;1.67;;;7.80;99.90;;;;;;4900445;29;20048;-75
2022/11/22 05:19:26;;;;;;;8.33;1.57;;;7.70;99.90;;;;;;4900409;29;20103;-74
2022/11/22 05:21:52;;;;;;;11.00;1.90;;;7.70;99.90;;;;;;4899874;29;20501;-75
2022/11/22 05:24:17;;;;;;;9.90;1.67;;;7.60;99.90;;;;;;4898863;29;20500;-75
2022/11/22 05:26:43;;;;;;;13.27;2.17;;;7.60;99.90;;;;;;4899668;29;20033;-75
2022/11/22 05:29:09;;;;;;;14.23;1.70;;;7.60;99.90;;;;;;4900071;29;20036;-75
2022/11/22 05:31:36;;;;;;;17.25;2.42;;;7.60;99.90;;;;;;4900297;29;20028;-75
2022/11/22 05:34:03;;;;;;;11.15;2.30;;;7.60;99.90;;;;;;4899148;29;20089;-75
2022/11/22 05:36:31;;;;;;;14.00;2.28;;;7.60;99.90;;;;;;4901269;29;20394;-74
2022/11/22 05:38:57;;;;;;;9.25;1.85;;;7.60;99.90;;;;;;4898858;29;20028;-78
2022/11/22 05:41:23;;;;;;;20.83;4.00;;;7.60;99.90;;;;;;4900361;29;20643;-75
2022/11/22 05:43:49;;;;;;;9.75;2.35;;;7.50;99.90;;;;;;4900477;29;20116;-76
2022/11/22 05:46:18;;;;;;;7.63;2.13;;;7.40;99.90;;;;;;4899073;29;20032;-76
2022/11/22 05:48:45;;;;;;;11.63;2.00;;;7.40;99.90;;;;;;4898666;29;20569;-76
2022/11/22 05:51:16;;;;;;;14.65;2.45;;;7.50;99.90;;;;;;4897487;29;20024;-76
2022/11/22 05:53:43;;;;;;;8.93;1.92;;;7.50;99.90;;;;;;4900093;29;20028;-75
2022/11/22 05:56:17;;;;;;;13.32;2.83;;;7.50;99.90;;;;;;4902318;29;20028;-74
2022/11/22 05:58:43;;;;;;;16.60;3.97;;;7.60;99.90;;;;;;4893211;29;20395;-74
2022/11/22 06:01:11;;;;;;;11.77;2.77;;;7.60;99.90;;;;;;4880102;29;20033;-73
2022/11/22 06:03:41;;;;;;;8.98;2.08;;;7.60;99.90;;;;;;4887931;29;20033;-75
2022/11/22 06:06:08;;;;;;;10.68;2.17;;;7.60;99.90;;;;;;4915450;29;20457;-74
2022/11/22 06:08:34;;;;;;;;;;;7.70;99.90;;;;;;4900469;29;20405;-75
2022/11/22 06:11:08;;;;;;;10.38;2.00;;;7.70;99.90;;;;;;4898680;29;20272;-75
2022/11/22 06:13:39;;;;;;;7.20;1.75;;;7.70;99.90;;;;;;4896090;29;20479;-73
2022/11/22 06:16:24;;;;;;;12.43;2.10;;;7.80;99.90;;;;;;4882641;29;20040;-74
2022/11/22 06:18:51;;;;;;;12.50;1.70;;;7.80;99.90;;;;;;4890705;29;20043;-73
2022/11/22 06:21:22;;;;;;;13.43;1.92;;;7.80;99.90;;;;;;4904317;29;20040;-73
2022/11/22 06:23:47;;;;;;;8.20;1.95;;;7.80;99.90;;;;;;4895075;29;20033;-73
2022/11/22 06:26:15;;;;;;;11.90;2.10;;;7.90;99.90;;;;;;4903140;29;20509;-73
2022/11/22 06:28:41;;;;;;;13.73;1.80;;;7.90;99.90;;;;;;4903241;29;20043;-72
2022/11/22 06:31:11;;;;;;;10.30;2.58;;;7.90;99.90;;;;;;4900682;29;20025;-72
2022/11/22 06:33:37;;;;;;;6.25;1.85;;;8.00;99.90;;;;;;4898001;29;20123;-72
2022/11/22 06:36:07;;;;;;;8.82;1.88;;;7.90;99.90;;;;;;4898598;29;20021;-72
2022/11/22 06:38:33;;;;;;;9.05;2.25;;;7.90;99.90;;;;;;4895335;29;20029;-74
2022/11/22 06:41:04;;;;;;;6.38;2.03;;;7.90;99.90;;;;;;4880242;29;20036;-72
2022/11/22 06:43:30;;;;;;;7.88;1.60;;;7.90;99.90;;;;;;4898605;29;20091;-69
2022/11/22 06:46:00;;;;;;;10.90;2.00;;;8.00;99.90;;;;;;4898171;29;20045;-69
2022/11/22 06:48:28;;;;;;;10.77;2.53;;;7.90;99.90;;;;;;4897069;29;20135;-70
2022/11/22 06:51:02;;;;;;;8.98;1.90;;;7.90;99.90;;;;;;4897449;29;20033;-70
2022/11/22 06:53:29;;;;;;;13.52;3.50;;;7.90;99.90;;;;;;4897820;29;20168;-73
2022/11/22 06:56:00;;;;;;;10.68;2.42;;;7.90;99.90;;;;;;4899514;29;20028;-74
2022/11/22 06:58:25;;;;;;;13.65;2.92;;;7.80;99.90;;;;;;4898647;29;20043;-73
2022/11/22 07:00:51;;;;;;;10.43;1.90;;;7.80;99.90;;;;;;4898763;29;20119;-72
2022/11/22 07:03:17;;;;;;;11.80;2.60;;;7.80;99.90;;;;;;4900196;29;20065;-72
2022/11/22 07:05:50;;;;;;;12.98;3.50;;;7.90;99.90;;;;;;4894593;29;20047;-73
2022/11/22 07:08:15;;;;;;;11.25;2.80;;;7.90;99.90;;;;;;4892397;29;20037;-74
2022/11/22 07:10:41;;;;;;;12.97;2.80;;;7.80;99.90;;;;;;4912978;29;20493;-75
2022/11/22 07:13:06;;;;;;;13.47;2.80;;;7.80;99.90;;;;;;4897513;29;20072;-75
2022/11/22 07:15:32;;;;;;;10.67;2.27;;;7.80;99.90;;;;;;4897165;29;20020;-74
2022/11/22 07:17:58;;;;;;;10.80;2.97;;;7.90;99.90;;;;;;4897469;29;20081;-75
2022/11/22 07:20:23;;;;;;;22.38;3.08;;;8.00;99.90;;;;;;4896673;29;20025;-74
2022/11/22 07:22:49;;;;;;;16.33;2.77;;;8.10;99.90;;;;;;4897629;29;20095;-74
2022/11/22 07:25:15;;;;;;;8.20;2.63;;;8.10;99.90;;;;;;4897260;29;20478;-75
2022/11/22 07:27:40;;;;;;;9.20;2.97;;;8.10;99.90;;;;;;4898689;29;20033;-75
2022/11/22 07:30:07;;;;;;;10.70;2.63;;;8.00;99.90;;;;;;4898474;29;20269;-74
2022/11/22 07:32:33;;;;;;;;;;;8.10;99.90;;;;;;4897342;29;20039;-75
2022/11/22 07:34:59;;;;;;;8.23;2.67;;;8.20;99.90;;;;;;4898410;29;19914;-74
2022/11/22 07:37:24;;;;;;;12.43;3.27;;;8.10;99.90;;;;;;4897163;29;20486;-75
2022/11/22 07:39:50;;;;;;;12.00;3.50;;;8.10;99.90;;;;;;4896844;29;20028;-75
2022/11/22 07:42:15;;;;;;;10.93;2.87;;;8.10;99.90;;;;;;4897071;29;20025;-74
2022/11/22 07:44:41;;;;;;;10.20;2.73;;;8.10;99.90;;;;;;4898401;29;20056;-75
2022/11/22 07:47:06;;;;;;;12.17;2.87;;;8.20;99.90;;;;;;4897059;29;20024;-74
2022/11/22 07:49:32;;;;;;;14.53;3.23;;;8.10;99.90;;;;;;4896940;29;20072;-74
2022/11/22 07:51:58;;;;;;;10.87;2.43;;;8.20;99.90;;;;;;4897062;29;20028;-75
2022/11/22 07:54:24;;;;;;;11.27;2.38;;;8.20;99.90;;;;;;4896583;29;20033;-74
2022/11/22 07:56:49;;;;;;;13.05;3.08;;;8.20;99.90;;;;;;4896963;29;20080;-75
2022/11/22 07:59:15;;;;;;;12.10;3.07;;;8.20;99.90;;;;;;4897129;29;20099;-75
2022/11/22 08:01:41;;;;;;;10.70;3.50;;;8.30;99.90;;;;;;4898842;29;20037;-75
2022/11/22 08:04:06;;;;;;;16.73;3.47;;;8.30;99.90;;;;;;4899738;29;20402;-74
2022/11/22 08:06:32;;;;;;;8.90;3.20;;;8.30;99.90;;;;;;4900039;29;20021;-75
2022/11/22 08:08:57;;;;;;;11.27;3.20;;;8.30;99.90;;;;;;4901595;29;20033;-75
2022/11/22 08:11:23;;;;;;;10.97;4.30;;;8.30;99.90;;;;;;4901427;29;20044;-75
2022/11/22 08:13:48;;;;;;;7.70;1.90;;;8.40;99.90;;;;;;4901499;29;20036;-75
2022/11/22 08:16:15;;;;;;;6.80;1.30;;;8.40;99.90;;;;;;4900740;29;20036;-75
2022/11/22 08:18:45;;;;;;;7.32;2.63;;;8.40;99.90;;;;;;4900060;29;20029;-75
2022/11/22 08:21:13;;;;;;;11.13;1.88;;;8.30;99.90;;;;;;4901169;29;20474;-75
2022/11/22 08:23:39;;;;;;;10.45;1.92;;;8.40;99.90;;;;;;4900784;29;20556;-75
2022/11/22 08:26:07;;;;;;;11.82;2.50;;;8.40;99.90;;;;;;4900400;29;20056;-74
2022/11/22 08:28:33;;;;;;;11.70;1.95;;;8.40;99.90;;;;;;4899826;29;20063;-75
2022/11/22 08:31:13;;;;;;;6.65;1.58;;;8.40;99.90;;;;;;4899804;29;20056;-75
2022/11/22 08:33:39;;;;;;;10.13;2.05;;;8.50;99.90;;;;;;4900045;29;20028;-74
2022/11/22 08:36:05;;;;;;;6.25;1.67;;;8.60;99.90;;;;;;4898614;29;20028;-74
2022/11/22 08:38:31;;;;;;;8.27;1.77;;;8.50;99.90;;;;;;4900939;29;20458;-74
2022/11/22 08:40:57;;;;;;;9.80;1.52;;;8.60;99.90;;;;;;4899876;29;20035;-74
2022/11/22 08:43:23;;;;;;;9.98;2.08;;;8.70;99.90;;;;;;4899932;29;20029;-74
2022/11/22 08:45:53;;;;;;;10.38;2.10;;;8.70;99.90;;;;;;4900273;29;20029;-75
2022/11/22 08:48:19;;;;;;;7.63;2.00;;;8.70;99.90;;;;;;4901140;29;20037;-74
2022/11/22 08:50:56;;;;;;;12.20;2.30;;;8.80;99.90;;;;;;4899942;29;20096;-75
2022/11/22 08:53:22;;;;;;;8.98;2.03;;;8.80;99.90;;;;;;4899926;29;20028;-73
2022/11/22 08:55:48;;;;;;;;;;;8.90;99.90;;;;;;4903956;29;20036;-76
2022/11/22 08:58:14;;;;;;;8.75;1.50;;;8.90;99.90;;;;;;4904128;29;20299;-74
2022/11/22 09:00:40;;;;;;;8.07;1.80;;;8.90;99.90;;;;;;4903491;29;20572;-74
2022/11/22 09:03:05;;;;;;;9.88;2.00;;;8.90;99.90;;;;;;4899670;29;20037;-73
2022/11/22 09:05:31;;;;;;;5.70;1.93;;;9.00;99.90;;;;;;4903723;29;20462;-74
2022/11/22 09:07:57;;;;;;;10.63;1.57;;;9.00;99.90;;;;;;4903791;29;20063;-75
2022/11/22 09:10:23;;;;;;;8.52;1.70;;;9.10;99.90;;;;;;4903161;29;20430;-75
2022/11/22 09:12:49;;;;;;;12.88;2.05;;;9.20;99.90;;;;;;4901503;29;20036;-75
2022/11/22 09:15:15;;;;;;;8.15;1.98;;;9.20;99.90;;;;;;4900675;29;20113;-75
2022/11/22 09:17:42;;;;;;;11.65;2.13;;;9.20;99.90;;;;;;4899026;29;20110;-74
2022/11/22 09:20:08;;;;;;;8.38;1.70;;;9.30;99.90;;;;;;4900287;29;20052;-74
2022/11/22 09:22:35;;;;;;;7.88;1.83;;;9.30;99.90;;;;;;4900152;29;20115;-75
2022/11/22 09:25:00;;;;;;;9.38;1.92;;;9.40;99.90;;;;;;4900221;29;20036;-73
2022/11/22 09:27:26;;;;;;;8.77;1.90;;;9.50;99.90;;;;;;4898399;29;20033;-74
2022/11/22 09:29:52;;;;;;;12.23;2.83;;;9.50;99.90;;;;;;4899083;29;20526;-75
2022/11/22 09:32:17;;;;;;;9.07;1.90;;;9.60;99.90;;;;;;4898954;29;20028;-75
2022/11/22 09:34:43;;;;;;;8.20;1.83;;;9.70;99.90;;;;;;4899175;29;20504;-75
2022/11/22 09:37:08;;;;;;;10.53;2.73;;;9.80;99.90;;;;;;4899815;29;20350;-74
2022/11/22 09:39:34;;;;;;;11.73;2.77;;;9.90;99.90;;;;;;4899334;29;20402;-75
2022/11/22 09:42:10;;;;;;;8.80;1.97;;;9.90;99.90;;;;;;4900541;29;20103;-75
2022/11/22 09:45:14;;;;;;;10.27;2.30;;;10.00;99.90;;;;;;4901151;29;20020;-75
2022/11/22 09:47:48;;;;;;;5.97;1.60;;;10.10;99.90;;;;;;4848211;29;20068;-75
2022/11/22 09:50:25;;;;;;;10.43;2.13;;;10.10;99.90;;;;;;4899442;29;20028;-75
2022/11/22 09:53:17;;;;;;;7.50;1.90;;;10.00;99.90;;;;;;4900742;29;20021;-76
2022/11/22 09:55:52;;;;;;;8.00;2.08;;;10.00;99.90;;;;;;4899747;29;20037;-76
2022/11/22 09:58:35;;;;;;;9.63;2.17;;;10.00;99.90;;;;;;4899488;29;20553;-76
2022/11/22 10:01:15;;;;;;;8.75;1.83;;;10.00;99.90;;;;;;4899697;29;20044;-74
2022/11/22 10:03:47;;;;;;;8.30;1.85;;;9.90;99.90;;;;;;4901643;29;20033;-74
2022/11/22 10:06:30;;;;;;;7.50;2.00;;;9.90;99.90;;;;;;4899410;29;20044;-75
2022/11/22 10:09:06;;;;;;;7.47;1.52;;;9.90;99.90;;;;;;4898882;29;20028;-76
2022/11/22 10:11:37;;;;;;;6.00;1.85;;;9.90;99.90;;;;;;4900152;29;20219;-74
2022/11/22 10:14:26;;;;;;;8.75;2.42;;;9.90;99.90;;;;;;4898176;29;20056;-74
2022/11/22 10:17:33;;;;;;;7.28;1.85;;;9.80;99.90;;;;;;4897925;29;20021;-75
2022/11/22 10:20:04;;;;;;;9.95;1.90;;;9.80;99.90;;;;;;4897883;29;20036;-75
2022/11/22 10:22:31;;;;;;;7.40;1.70;;;9.80;99.90;;;;;;4899621;29;20034;-75
2022/11/22 10:25:00;;;;;;;;;;;9.70;99.90;;;;;;4899671;29;20032;-75
2022/11/22 10:27:31;;;;;;;9.57;1.95;;;9.60;99.90;;;;;;4898316;29;20369;-76
2022/11/22 10:30:05;;;;;;;9.60;1.20;;;9.60;99.90;;;;;;4898018;29;20128;-75
2022/11/22 10:32:39;;;;;;;8.10;1.30;;;9.60;99.90;;;;;;4899675;29;20025;-75
2022/11/22 10:35:29;;;;;;;9.13;1.63;;;9.60;99.90;;;;;;4899186;29;20027;-76
2022/11/22 10:38:07;;;;;;;6.53;1.88;;;9.70;99.90;;;;;;4899566;29;20500;-74
2022/11/22 10:41:20;;;;;;;8.18;1.73;;;9.70;99.90;;;;;;4899144;29;20041;-76
2022/11/22 10:43:57;;;;;;;10.52;2.67;;;9.50;99.90;;;;;;4889459;29;20033;-75
2022/11/22 10:46:44;;;;;;;8.32;1.75;;;9.60;99.90;;;;;;4897673;29;20029;-75
2022/11/22 10:49:37;;;;;;;7.65;1.45;;;9.50;99.90;;;;;;4897773;29;20025;-75
2022/11/22 10:52:28;;;;;;;8.43;1.70;;;9.80;99.90;;;;;;4898988;29;20466;-75
2022/11/22 10:55:15;;;;;;;9.02;1.58;;;9.80;99.90;;;;;;4897353;29;20051;-74
2022/11/22 10:57:52;;;;;;;7.18;1.30;;;9.90;99.90;;;;;;4900741;29;20052;-74
2022/11/22 11:00:23;;;;;;;6.57;2.20;;;10.00;99.90;;;;;;4903006;29;20044;-73
2022/11/22 11:02:55;;;;;;;8.40;1.92;;;9.80;99.90;;;;;;4901242;29;20047;-74
2022/11/22 11:05:38;;;;;;;8.43;1.27;;;9.90;99.90;;;;;;4896492;29;20032;-75
2022/11/22 11:08:04;;;;;;;12.25;1.77;;;9.60;99.90;;;;;;4897182;29;20517;-75
2022/11/22 11:10:35;;;;;;;11.13;2.28;;;9.50;99.90;;;;;;4897146;29;20028;-74
2022/11/22 11:13:18;;;;;;;6.45;1.45;;;9.60;99.90;;;;;;4898634;29;20394;-72
2022/11/22 11:15:49;;;;;;;7.65;1.45;;;9.60;99.90;;;;;;4919248;23;20037;-70
2022/11/22 11:18:19;;;;;;;9.60;2.20;;;9.60;99.90;;;;;;4896771;29;20024;-70
2022/11/22 11:20:46;;;;;;;9.00;1.70;;;9.50;99.90;;;;;;4896564;29;20056;-69
2022/11/22 11:23:13;;;;;;;6.65;1.38;;;9.70;99.90;;;;;;4912445;29;20039;-70
2022/11/22 11:25:42;;;;;;;11.05;2.08;;;9.70;99.90;;;;;;4896602;29;20128;-70
2022/11/22 11:28:21;;;;;;;9.10;1.73;;;9.60;99.90;;;;;;4898401;29;20374;-70
2022/11/22 11:31:09;;;;;;;5.22;1.77;;;9.70;99.90;;;;;;4896573;29;20430;-70
2022/11/22 11:33:37;;;;;;;7.25;1.60;;;9.70;99.90;;;;;;4897317;29;20044;-69
2022/11/22 11:36:15;;;;;;;9.90;1.50;;;9.90;99.90;;;;;;4898838;29;20052;-69
2022/11/22 11:38:43;;;;;;;3.92;1.08;;;9.80;99.90;;;;;;4883023;29;20045;-69
2022/11/22 11:41:26;;;;;;;6.10;1.10;;;9.80;99.90;;;;;;4881411;29;20025;-69
2022/11/22 11:43:54;;;;;;;5.40;1.15;;;9.80;99.90;;;;;;4891625;29;20033;-71
2022/11/22 11:46:27;;;;;;;7.57;1.60;;;9.80;99.90;;;;;;4901253;29;20395;-70
2022/11/22 11:49:07;;;;;;;7.28;1.33;;;10.10;99.90;;;;;;4900279;29;20052;-69
2022/11/22 11:51:55;;;;;;;4.35;0.98;;;10.00;99.90;;;;;;4899634;29;20089;-69
2022/11/22 11:54:22;;;;;;;8.60;1.30;;;10.00;99.90;;;;;;4901212;29;20491;-70
2022/11/22 11:56:56;;;;;;;6.40;1.35;;;10.30;99.90;;;;;;4899952;29;20137;-71
2022/11/22 11:59:27;;;;;;;5.95;1.48;;;10.40;99.90;;;;;;4915867;29;20030;-70
2022/11/22 12:02:01;;;;;;;6.38;1.10;;;10.20;99.90;;;;;;4900834;29;20025;-70
2022/11/22 12:04:29;;;;;;;6.13;1.10;;;10.20;99.90;;;;;;4901075;29;20036;-70
2022/11/22 12:07:15;;;;;;;6.22;1.38;;;10.20;99.90;;;;;;4899669;29;20504;-71
2022/11/22 12:09:46;;;;;;;5.13;1.10;;;10.10;99.90;;;;;;4901116;29;20029;-69
2022/11/22 12:12:50;;;;;;;5.32;1.20;;;10.00;99.90;;;;;;4899431;29;20036;-69
2022/11/22 12:15:31;;;;;;;5.60;1.10;;;10.30;99.90;;;;;;4914914;29;20437;-69
2022/11/22 12:18:51;;;;;;;7.93;1.33;;;10.50;99.90;;;;;;4900668;29;20028;-70
2022/11/22 12:21:21;;;;;;;3.03;1.00;;;10.40;99.90;;;;;;4824318;29;20038;-70
2022/11/22 12:23:57;;;;;;;5.60;1.05;;;10.30;99.90;;;;;;4824642;29;20043;-69
2022/11/22 12:26:25;;;;;;;4.00;0.85;;;10.30;99.90;;;;;;4809441;29;20090;-70
2022/11/22 12:28:52;;;;;;;4.47;1.08;;;10.40;99.90;;;;;;4809213;29;20072;-70
2022/11/22 12:31:35;;;;;;;6.18;1.13;;;10.40;99.90;;;;;;4809029;29;20039;-70
2022/11/22 12:34:23;;;;;;;6.85;0.93;;;10.20;99.90;;;;;;4808781;29;20033;-71
2022/11/22 12:37:06;;;;;;;4.50;0.95;;;10.10;99.90;;;;;;4825487;29;20438;-71
2022/11/22 12:39:35;;;;;;;4.90;0.90;;;10.10;99.90;;;;;;4825119;29;20058;-71
2022/11/22 12:42:11;;;;;;;3.75;0.90;;;10.10;99.90;;;;;;4824434;29;20039;-71
2022/11/22 12:44:41;;;;;;;9.20;1.37;;;10.40;99.90;;;;;;4809005;29;20070;-71
2022/11/22 12:47:16;;;;;;;4.60;0.93;;;10.40;99.90;;;;;;4808370;29;20272;-69
2022/11/22 12:49:47;;;;;;;6.00;1.10;;;10.50;99.90;;;;;;4824135;29;20045;-70
2022/11/22 12:52:28;;;;;;;5.88;1.30;;;10.70;99.90;;;;;;4824232;29;20023;-69
2022/11/22 12:55:13;;;;;;;6.03;1.00;;;10.80;99.90;;;;;;4846260;29;20487;-69
2022/11/22 12:58:12;;;;;;;6.90;1.10;;;10.70;99.90;;;;;;4896698;29;20040;-71
2022/11/22 13:01:08;;;;;;;5.15;1.13;;;10.70;99.90;;;;;;4863105;29;20036;-71
2022/11/22 13:03:44;;;;;;;6.25;1.15;;;10.80;99.90;;;;;;4883278;29;20089;-70
2022/11/22 13:06:10;;;;;;;5.15;1.25;;;10.80;99.90;;;;;;4895216;29;20159;-70
2022/11/22 13:08:36;;;;;;;;;;;10.80;99.90;;;;;;4881424;29;20036;-69
2022/11/22 13:11:24;;;;;;;4.60;0.90;;;10.60;99.90;;;;;;4880909;29;19911;-68
2022/11/22 13:13:56;;;;;;;3.08;0.60;;;10.20;99.90;;;;;;4879088;29;20495;-69
2022/11/22 13:16:21;;;;;;;2.55;0.60;;;10.40;99.90;;;;;;4887407;29;20385;-73
2022/11/22 13:18:55;;;;;;;4.20;1.20;;;10.40;99.90;;;;;;4900323;29;20033;-74
2022/11/22 13:21:51;;;;;;;5.53;1.00;;;10.50;99.90;;;;;;4899759;29;20028;-74
2022/11/22 13:24:28;;;;;;;3.35;1.13;;;10.50;99.90;;;;;;4897887;29;20422;-73
2022/11/22 13:27:28;;;;;;;3.72;0.90;;;10.50;99.90;;;;;;4898407;29;20044;-69
2022/11/22 13:29:57;;;;;;;2.08;0.65;;;10.50;99.90;;;;;;4899265;29;20037;-70
2022/11/22 13:32:32;;;;;;;3.13;1.10;;;10.40;99.90;;;;;;4897975;29;20035;-68
2022/11/22 13:35:05;;;;;;;4.10;0.75;;;10.30;99.90;;;;;;4897733;29;20115;-70
2022/11/22 13:37:37;;;;;;;1.35;0.60;;;10.30;99.90;;;;;;4903058;29;20099;-70
2022/11/22 13:40:24;;;;;;;3.53;0.70;;;10.40;99.90;;;;;;4898112;29;20081;-69
2022/11/22 13:43:14;;;;;;;2.72;0.77;;;10.30;99.90;;;;;;4899601;29;20025;-69
2022/11/22 13:45:50;;;;;;;3.40;0.73;;;10.30;99.90;;;;;;4899152;29;20394;-69
2022/11/22 13:48:37;;;;;;;3.05;0.80;;;10.20;99.90;;;;;;4897490;29;20123;-69
2022/11/22 13:51:08;;;;;;;3.92;0.90;;;10.40;99.90;;;;;;4898881;29;20033;-68
2022/11/22 13:53:36;;;;;;;4.78;2.10;;;10.40;99.90;;;;;;4897636;29;20061;-71
2022/11/22 13:56:14;;;;;;;1.80;0.73;;;10.30;99.90;;;;;;4898833;29;20027;-70
2022/11/22 13:59:03;;;;;;;1.50;0.63;;;10.40;99.90;;;;;;4896237;29;20404;-70
2022/11/22 14:01:49;;;;;;;4.47;0.90;;;10.40;99.90;;;;;;4870249;29;20077;-71
2022/11/22 14:04:15;;;;;;;4.75;1.30;;;10.40;99.90;;;;;;4882146;29;20041;-72
2022/11/22 14:07:03;;;;;;;4.50;0.63;;;10.40;99.90;;;;;;4898460;29;20520;-69
2022/11/22 14:09:43;;;;;;;1.90;0.70;;;10.40;99.90;;;;;;4898686;29;20029;-69
2022/11/22 14:12:32;;;;;;;2.13;0.60;;;10.30;99.90;;;;;;4895885;29;20068;-70
2022/11/22 14:15:20;;;;;;;4.68;0.80;;;10.20;99.90;;;;;;4880826;29;20049;-70
2022/11/22 14:17:54;;;;;;;3.92;0.93;;;10.20;99.90;;;;;;4894744;29;20033;-70
2022/11/22 14:20:47;;;;;;;2.17;0.90;;;10.10;99.90;;;;;;4890305;29;20087;-71
2022/11/22 14:23:52;;;;;;;3.63;0.70;;;10.00;99.90;;;;;;4883403;29;20443;-70
2022/11/22 14:26:43;;;;;;;2.05;0.60;;;9.80;99.90;;;;;;4879839;29;20062;-70
2022/11/22 14:29:45;;;;;;;4.22;0.95;;;9.90;99.90;;;;;;4854562;29;20078;-70
2022/11/22 14:32:26;;;;;;;4.97;0.88;;;10.00;99.90;;;;;;4892808;29;20037;-70
2022/11/22 14:35:04;;;;;;;3.08;0.75;;;10.00;99.90;;;;;;4897500;29;20177;-70
2022/11/22 14:37:32;;;;;;;4.75;1.00;;;9.80;99.90;;;;;;4896867;29;20036;-69
2022/11/22 14:40:07;;;;;;;1.90;0.65;;;9.90;99.90;;;;;;4885350;29;20056;-70
2022/11/22 14:42:41;;;;;;;3.35;0.60;;;9.70;99.90;;;;;;4878282;29;20025;-68
2022/11/22 14:45:10;;;;;;;5.00;2.40;;;9.60;99.90;;;;;;4892275;29;20028;-69
2022/11/22 14:47:52;;;;;;;3.15;0.88;;;9.40;99.90;;;;;;4897035;29;20032;-68
2022/11/22 14:50:24;;;;;;;5.10;0.90;;;9.40;99.90;;;;;;4883460;29;20025;-68
2022/11/22 14:52:51;;;;;;;3.28;0.75;;;9.30;99.90;;;;;;4879888;29;20494;-69
2022/11/22 14:55:18;;;;;;;;;;;9.20;99.90;;;;;;4881947;29;20029;-70
2022/11/22 14:57:47;;;;;;;2.55;0.60;;;9.10;99.90;;;;;;4879605;29;19947;-68
2022/11/22 15:00:20;;;;;;;2.65;0.90;;;9.10;99.90;;;;;;4879244;29;20037;-68
2022/11/22 15:03:27;;;;;;;3.88;0.70;;;9.10;99.90;;;;;;4879779;29;20037;-70
2022/11/22 15:06:06;;;;;;;5.82;1.85;;;9.10;99.90;;;;;;4879418;29;20033;-69
2022/11/22 15:08:44;;;;;;;3.13;0.75;;;9.20;99.90;;;;;;4878657;29;20510;-70
2022/11/22 15:11:36;;;;;;;2.20;0.50;;;9.00;99.90;;;;;;4892528;29;20036;-69
2022/11/22 15:14:44;;;;;;;2.42;0.88;;;9.10;99.90;;;;;;4827542;29;20137;-71
2022/11/22 15:17:15;;;;;;;2.42;0.90;;;9.10;99.90;;;;;;4807305;29;20043;-72
2022/11/22 15:19:41;;;;;;;2.05;0.80;;;9.20;99.90;;;;;;4828582;29;20488;-71
2022/11/22 15:22:11;;;;;;;4.97;1.00;;;9.00;99.90;;;;;;4828316;29;20030;-73
2022/11/22 15:24:39;;;;;;;3.20;0.90;;;9.00;99.90;;;;;;4828824;29;20519;-72
2022/11/22 15:27:20;;;;;;;4.90;1.02;;;9.00;99.90;;;;;;4827740;29;20093;-72
2022/11/22 15:29:45;;;;;;;6.40;1.60;;;9.00;99.90;;;;;;4812625;29;20545;-73
2022/11/22 15:32:19;;;;;;;4.20;1.00;;;8.90;99.90;;;;;;4812529;29;20129;-73
2022/11/22 15:34:48;;;;;;;3.47;0.70;;;8.90;99.90;;;;;;4812508;29;20121;-72
2022/11/22 15:37:29;;;;;;;4.22;0.85;;;8.80;99.90;;;;;;4826560;29;20030;-72
2022/11/22 15:39:55;;;;;;;4.45;0.90;;;8.80;99.90;;;;;;4836312;29;20033;-72
2022/11/22 15:42:20;;;;;;;4.17;0.73;;;8.80;99.90;;;;;;4844679;29;20048;-72
2022/11/22 15:44:47;;;;;;;2.30;1.10;;;8.90;99.90;;;;;;4828908;29;20556;-72
2022/11/22 15:47:18;;;;;;;5.20;1.20;;;9.00;99.90;;;;;;4846289;29;20440;-72
2022/11/22 15:49:45;;;;;;;6.10;0.88;;;8.80;99.90;;;;;;4832462;29;20026;-71
2022/11/22 15:52:23;;;;;;;5.70;1.00;;;8.80;99.90;;;;;;4895548;29;20020;-72
2022/11/22 15:54:54;;;;;;;4.80;1.58;;;8.80;99.90;;;;;;4902801;29;20025;-72
2022/11/22 15:57:27;;;;;;;4.68;1.00;;;8.70;99.90;;;;;;4902788;29;20053;-72
2022/11/22 15:59:53;;;;;;;3.63;0.98;;;8.70;99.90;;;;;;4902605;29;20172;-71
2022/11/22 16:02:21;;;;;;;4.45;1.10;;;8.70;99.90;;;;;;4904060;29;20071;-73
2022/11/22 16:04:55;;;;;;;9.35;0.90;;;8.70;99.90;;;;;;4903911;29;20032;-72
2022/11/22 16:07:48;;;;;;;4.13;0.70;;;8.60;99.90;;;;;;4902900;29;20028;-72
2022/11/22 16:10:35;;;;;;;3.83;0.95;;;8.60;99.90;;;;;;4903302;29;20045;-72
2022/11/22 16:13:13;;;;;;;5.30;0.80;;;8.50;99.90;;;;;;4902711;29;20482;-73
2022/11/22 16:15:38;;;;;;;2.85;0.70;;;8.50;99.90;;;;;;4902791;29;20127;-72
2022/11/22 16:18:26;;;;;;;3.50;1.13;;;8.40;99.90;;;;;;4902928;29;20079;-70
2022/11/22 16:20:59;;;;;;;3.05;1.00;;;8.20;99.90;;;;;;4903230;29;20033;-70
2022/11/22 16:23:36;;;;;;;4.28;0.80;;;8.00;99.90;;;;;;4915087;29;20033;-69
2022/11/22 16:26:17;;;;;;;5.18;0.88;;;7.90;99.90;;;;;;4899718;29;20036;-69
2022/11/22 16:28:44;;;;;;;7.80;1.23;;;7.90;99.90;;;;;;4899703;29;20048;-69
2022/11/22 16:31:22;;;;;;;5.65;0.95;;;7.90;99.90;;;;;;4901103;29;20032;-70
2022/11/22 16:33:48;;;;;;;5.88;1.40;;;7.80;99.90;;;;;;4899518;29;20029;-70
2022/11/22 16:36:16;;;;;;;3.33;1.30;;;7.90;99.90;;;;;;4900740;29;20029;-69
2022/11/22 16:38:42;;;;;;;8.93;1.67;;;7.90;99.90;;;;;;4900746;29;20551;-70
2022/11/22 16:41:14;;;;;;;;;;;8.00;99.90;;;;;;4901954;29;20093;-71
2022/11/22 16:43:39;;;;;;;5.05;2.10;;;7.90;99.90;;;;;;4899917;29;19947;-71
2022/11/22 16:46:05;;;;;;;2.77;0.97;;;7.80;99.90;;;;;;4900577;29;20025;-71
2022/11/22 16:48:30;;;;;;;3.80;0.87;;;7.90;99.90;;;;;;4900497;29;20068;-71
2022/11/22 16:50:58;;;;;;;3.57;1.10;;;7.90;99.90;;;;;;4898757;29;20052;-71
2022/11/22 16:53:26;;;;;;;2.92;0.93;;;7.90;99.90;;;;;;4898919;29;20111;-71
2022/11/22 16:55:51;;;;;;;26.30;9.25;;;7.90;99.90;;;;;;4900560;29;20024;-71
2022/11/22 16:58:22;;;;;;;6.40;1.53;;;8.00;99.90;;;;;;4900162;29;20450;-71
2022/11/22 17:00:49;;;;;;;4.22;1.08;;;8.10;99.90;;;;;;4899997;29;20033;-71
2022/11/22 17:03:18;;;;;;;18.05;6.70;;;8.10;99.90;;;;;;4913785;29;20067;-71
2022/11/22 17:05:44;;;;;;;4.85;1.70;;;8.10;99.90;;;;;;4899895;29;20060;-72
2022/11/22 17:08:15;;;;;;;7.03;1.30;;;8.20;99.90;;;;;;4914383;29;20056;-72
2022/11/22 17:10:44;;;;;;;3.28;1.40;;;8.20;99.90;;;;;;4900480;29;20029;-71
2022/11/22 17:13:24;;;;;;;5.75;2.33;;;8.20;99.90;;;;;;4898043;29;20443;-72
2022/11/22 17:15:54;;;;;;;5.68;1.20;;;8.20;99.90;;;;;;4901130;29;20502;-70
2022/11/22 17:18:20;;;;;;;3.35;1.10;;;8.20;99.90;;;;;;4901128;29;20040;-70
2022/11/22 17:20:46;;;;;;;4.80;1.27;;;8.20;99.90;;;;;;4901403;29;20111;-69
2022/11/22 17:23:35;;;;;;;6.53;1.30;;;8.30;99.90;;;;;;4899816;29;20033;-70
2022/11/22 17:26:01;;;;;;;5.63;1.10;;;8.20;99.90;;;;;;4881514;29;20021;-70
2022/11/22 17:28:27;;;;;;;8.30;3.50;;;8.30;99.90;;;;;;4880876;29;20037;-71
2022/11/22 17:30:53;;;;;;;6.43;0.90;;;8.30;99.90;;;;;;4898462;29;20055;-70
2022/11/22 17:33:19;;;;;;;6.82;1.42;;;8.40;99.90;;;;;;4898682;29;20345;-70
2022/11/22 17:35:44;;;;;;;3.63;1.17;;;8.40;99.90;;;;;;4897627;29;20031;-71
2022/11/22 17:38:11;;;;;;;4.43;1.10;;;8.40;99.90;;;;;;4898626;29;20032;-71
2022/11/22 17:40:36;;;;;;;4.28;1.38;;;8.50;99.90;;;;;;4879639;29;20036;-72
2022/11/22 17:43:02;;;;;;;6.68;1.50;;;8.40;99.90;;;;;;4891314;29;20028;-71
2022/11/22 17:45:28;;;;;;;5.73;1.10;;;8.50;99.90;;;;;;4900342;29;20064;-71
2022/11/22 17:47:54;;;;;;;3.42;1.20;;;8.60;99.90;;;;;;4899770;29;20083;-73
2022/11/22 17:50:19;;;;;;;4.23;1.53;;;8.60;99.90;;;;;;4900123;29;20037;-71
2022/11/22 17:52:45;;;;;;;4.37;1.40;;;8.60;99.90;;;;;;4899840;29;20024;-72
2022/11/22 17:55:11;;;;;;;6.93;1.80;;;8.60;99.90;;;;;;4900070;29;20267;-73
2022/11/22 17:57:36;;;;;;;3.83;1.00;;;8.60;99.90;;;;;;4899782;29;20046;-72
2022/11/22 18:00:07;;;;;;;4.57;1.30;;;8.60;99.90;;;;;;4898930;29;20048;-71
2022/11/22 18:02:33;;;;;;;10.88;5.55;;;8.50;99.90;;;;;;4898648;29;20436;-72
2022/11/22 18:05:02;;;;;;;3.83;1.30;;;8.50;99.90;;;;;;4899865;29;20172;-72
2022/11/22 18:07:28;;;;;;;6.38;1.55;;;8.50;99.90;;;;;;4899434;29;20036;-71
2022/11/22 18:09:54;;;;;;;7.30;1.27;;;8.50;99.90;;;;;;4898803;29;20033;-71
2022/11/22 18:12:20;;;;;;;8.88;2.45;;;8.50;99.90;;;;;;4899527;29;20031;-71
2022/11/22 18:14:46;;;;;;;10.38;2.65;;;8.50;99.90;;;;;;4898909;29;20100;-72
2022/11/22 18:17:12;;;;;;;4.03;1.50;;;8.50;99.90;;;;;;4899738;29;20394;-71
2022/11/22 18:19:38;;;;;;;6.25;1.40;;;8.50;99.90;;;;;;4899438;29;20103;-72
2022/11/22 18:22:04;;;;;;;7.28;2.10;;;8.50;99.90;;;;;;4897738;29;20056;-71